Airport View

Enter AWOS ICAO identifier for current METAR.

ex. KFNL

KVNC 030100Z AUTO 08007G13KT 10SM FEW018 BKN024 OVC050 26/23 A3007 RMK AO2

3 Jun 2020 00:54

Frequency: 119.275

Phone: 941-486-2718

Other Area AWOS: KSRQ - KPGD - KFMY - KSPG

TAF KSRQ 022335Z 0300/0324 09012KT P6SM VCSH SCT025 BKN100 OVC250 FM030400 09008KT P6SM SCT020 BKN050 OVC250 FM031400 11010KT P6SM VCTS SCT025CB BKN050 FM031900 23010KT P6SM VCTS SCT025CB BKN050